createdAt,value
2023-04-23T00:02:49.982Z,11.30
2023-04-23T00:05:52.709Z,11.40
2023-04-23T00:08:55.280Z,11.60
2023-04-23T00:11:58.041Z,11.30
2023-04-23T00:15:00.480Z,11.70
2023-04-23T00:18:02.060Z,12.60
2023-04-23T00:21:03.716Z,11.00
2023-04-23T00:24:05.665Z,11.30
2023-04-23T00:27:07.305Z,11.50
2023-04-23T00:30:09.830Z,11.40
2023-04-23T00:33:11.443Z,11.70
2023-04-23T00:36:12.993Z,11.00
2023-04-23T00:39:14.582Z,11.40
2023-04-23T00:42:17.099Z,11.30
2023-04-23T00:45:18.939Z,11.40
2023-04-23T00:48:21.049Z,11.10
2023-04-23T00:51:25.887Z,11.40
2023-04-23T00:54:28.065Z,13.30
2023-04-23T00:57:29.722Z,11.10
2023-04-23T01:00:31.370Z,11.10
2023-04-23T01:03:36.332Z,11.60
2023-04-23T01:06:38.240Z,11.10
2023-04-23T01:09:40.484Z,11.40
2023-04-23T01:12:42.061Z,11.30
2023-04-23T01:15:45.119Z,11.50
2023-04-23T01:18:47.030Z,11.40
2023-04-23T01:21:50.794Z,11.20
2023-04-23T01:24:52.633Z,11.20
2023-04-23T01:27:54.489Z,12.20
2023-04-23T01:30:56.843Z,11.30
2023-04-23T01:34:00.150Z,11.00
2023-04-23T01:37:04.284Z,11.10
2023-04-23T01:40:08.388Z,10.70
2023-04-23T01:43:10.956Z,11.00
2023-04-23T01:46:12.882Z,12.70
2023-04-23T01:49:14.734Z,11.00
2023-04-23T01:52:16.346Z,10.90
2023-04-23T01:55:19.223Z,11.10
2023-04-23T01:58:21.252Z,11.00
2023-04-23T02:01:22.949Z,10.70
2023-04-23T02:04:24.837Z,10.70
2023-04-23T02:07:26.561Z,10.50
2023-04-23T02:10:30.515Z,10.50
2023-04-23T02:13:32.810Z,10.20
2023-04-23T02:16:35.517Z,10.30
2023-04-23T02:19:37.070Z,10.30
2023-04-23T02:22:40.878Z,10.10
2023-04-23T02:25:43.549Z,10.20
2023-04-23T02:28:46.043Z,10.10
2023-04-23T02:31:47.665Z,10.30
2023-04-23T02:34:49.261Z,10.40
2023-04-23T02:37:51.294Z,10.50
2023-04-23T02:40:52.827Z,10.00
2023-04-23T02:43:54.410Z,10.30
2023-04-23T02:46:56.274Z,10.30
2023-04-23T02:49:58.148Z,10.60
2023-04-23T02:52:59.706Z,10.20
2023-04-23T02:56:02.433Z,10.00
2023-04-23T02:59:04.573Z,10.30
2023-04-23T03:02:06.175Z,10.30
2023-04-23T03:05:08.420Z,11.00
2023-04-23T03:08:09.982Z,10.20
2023-04-23T03:11:11.548Z,10.50
2023-04-23T03:14:13.117Z,10.40
2023-04-23T03:17:14.773Z,10.30
2023-04-23T03:20:16.344Z,10.70
2023-04-23T03:23:17.922Z,10.50
2023-04-23T03:26:19.476Z,10.70
2023-04-23T03:29:21.124Z,10.70
2023-04-23T03:32:22.720Z,10.70
2023-04-23T03:35:26.444Z,10.70
2023-04-23T03:38:28.040Z,10.30
2023-04-23T03:41:29.595Z,10.40
2023-04-23T03:44:31.221Z,10.60
2023-04-23T03:47:32.893Z,10.90
2023-04-23T03:50:38.769Z,10.80
2023-04-23T03:53:40.399Z,11.10
2023-04-23T03:56:42.000Z,10.90
2023-04-23T03:59:43.594Z,11.80
2023-04-23T04:02:45.217Z,10.60
2023-04-23T04:05:47.015Z,10.80
2023-04-23T04:08:48.582Z,10.80
2023-04-23T04:11:51.312Z,10.80
2023-04-23T04:14:53.823Z,10.60
2023-04-23T04:17:55.410Z,10.50
2023-04-23T04:20:56.966Z,10.90
2023-04-23T04:23:58.511Z,10.60
2023-04-23T04:27:01.621Z,10.80
2023-04-23T04:30:05.467Z,10.70
2023-04-23T04:33:07.008Z,10.90
2023-04-23T04:36:09.383Z,10.40
2023-04-23T04:39:11.012Z,10.80
2023-04-23T04:42:13.056Z,11.20
2023-04-23T04:45:15.248Z,10.90
2023-04-23T04:48:16.822Z,11.00
2023-04-23T04:51:18.396Z,10.80
2023-04-23T04:54:20.775Z,10.70
2023-04-23T04:57:23.051Z,10.40
2023-04-23T05:00:29.383Z,10.90
2023-04-23T05:03:31.382Z,11.10
2023-04-23T05:06:33.175Z,10.80
2023-04-23T05:09:34.793Z,10.70
2023-04-23T05:12:37.142Z,11.10
2023-04-23T05:15:38.842Z,10.90
2023-04-23T05:18:41.739Z,11.10
2023-04-23T05:21:43.608Z,11.10
2023-04-23T05:24:46.401Z,12.70
2023-04-23T05:27:48.007Z,11.10
2023-04-23T05:30:50.605Z,11.20
2023-04-23T05:33:53.062Z,11.80
2023-04-23T05:36:54.620Z,12.10
2023-04-23T05:39:57.409Z,11.90
2023-04-23T05:42:59.261Z,11.90
2023-04-23T05:46:00.855Z,12.10
2023-04-23T05:49:02.602Z,12.20
2023-04-23T05:52:04.536Z,11.90
2023-04-23T05:55:07.925Z,12.00
2023-04-23T05:58:09.855Z,12.30
2023-04-23T06:01:11.490Z,12.40
2023-04-23T06:04:13.713Z,12.50
2023-04-23T06:07:15.796Z,12.30
2023-04-23T06:10:17.377Z,12.30
2023-04-23T06:13:18.978Z,12.40
2023-04-23T06:16:20.579Z,12.10
2023-04-23T06:19:24.978Z,12.30
2023-04-23T06:22:26.525Z,12.50
2023-04-23T06:25:28.279Z,12.10
2023-04-23T06:28:29.949Z,12.60
2023-04-23T06:31:31.558Z,12.20
2023-04-23T06:34:33.138Z,12.50
2023-04-23T06:37:34.769Z,12.10
2023-04-23T06:40:36.409Z,12.80
2023-04-23T06:43:37.991Z,12.50
2023-04-23T06:46:39.582Z,12.60
2023-04-23T06:49:41.259Z,13.00
2023-04-23T06:52:43.364Z,13.00
2023-04-23T06:55:45.475Z,12.70
2023-04-23T06:58:47.181Z,12.90
2023-04-23T07:01:48.828Z,13.00
2023-04-23T07:04:50.408Z,14.70
2023-04-23T07:07:53.415Z,13.90
2023-04-23T07:10:55.689Z,13.40
2023-04-23T07:13:57.945Z,13.50
2023-04-23T07:16:59.603Z,13.30
2023-04-23T07:20:04.864Z,13.80
2023-04-23T07:23:06.522Z,13.60
2023-04-23T07:26:08.091Z,14.00
2023-04-23T07:29:14.028Z,13.30
2023-04-23T07:32:16.226Z,13.90
2023-04-23T07:35:18.706Z,14.10
2023-04-23T07:38:20.260Z,14.20
2023-04-23T07:41:21.830Z,14.40
2023-04-23T07:44:23.377Z,14.30
2023-04-23T07:47:25.036Z,15.10
2023-04-23T07:50:26.581Z,14.90
2023-04-23T07:53:28.605Z,14.70
2023-04-23T07:56:32.378Z,14.70
2023-04-23T07:59:34.080Z,14.90
2023-04-23T08:02:35.929Z,14.70
2023-04-23T08:05:39.061Z,14.90
2023-04-23T08:08:40.740Z,15.00
2023-04-23T08:11:42.366Z,14.70
2023-04-23T08:14:44.504Z,14.80
2023-04-23T08:17:46.063Z,15.20
2023-04-23T08:20:48.383Z,15.10
2023-04-23T08:23:49.964Z,15.30
2023-04-23T08:26:51.992Z,15.20
2023-04-23T08:29:53.546Z,15.40
2023-04-23T08:32:55.312Z,15.40
2023-04-23T08:35:56.949Z,15.50
2023-04-23T08:38:58.560Z,15.20
2023-04-23T08:42:09.942Z,15.50
2023-04-23T08:45:12.873Z,15.30
2023-04-23T08:48:14.706Z,15.40
2023-04-23T08:51:19.639Z,15.50
2023-04-23T08:54:28.776Z,15.80
2023-04-23T08:57:31.249Z,17.30
2023-04-23T09:00:34.488Z,15.90
2023-04-23T09:03:38.422Z,16.10
2023-04-23T09:06:40.238Z,15.70
2023-04-23T09:09:42.269Z,15.10
2023-04-23T09:12:44.874Z,15.40
2023-04-23T09:15:46.538Z,15.20
2023-04-23T09:18:49.700Z,15.70
2023-04-23T09:21:51.644Z,15.90
2023-04-23T09:24:54.430Z,15.80
2023-04-23T09:27:58.677Z,16.20
2023-04-23T09:31:00.809Z,16.30
2023-04-23T09:34:02.666Z,16.40
2023-04-23T09:37:06.064Z,17.00
2023-04-23T09:40:10.862Z,17.10
2023-04-23T09:43:12.473Z,17.50
2023-04-23T09:46:14.114Z,17.20
2023-04-23T09:49:15.891Z,17.50
2023-04-23T09:52:18.675Z,17.50
2023-04-23T09:55:29.038Z,17.60
2023-04-23T09:58:30.620Z,18.10
2023-04-23T10:01:32.223Z,17.70
2023-04-23T10:04:34.727Z,18.00
2023-04-23T10:07:37.835Z,18.00
2023-04-23T10:10:54.470Z,18.30
2023-04-23T10:13:58.853Z,18.60
2023-04-23T10:17:04.836Z,18.70
2023-04-23T10:20:08.305Z,18.70
2023-04-23T10:23:14.214Z,18.70
2023-04-23T10:26:19.404Z,18.30
2023-04-23T10:29:26.999Z,18.80
2023-04-23T10:32:29.372Z,18.40
2023-04-23T10:35:31.580Z,18.40
2023-04-23T10:38:33.875Z,18.30
2023-04-23T10:41:38.413Z,18.40
2023-04-23T10:47:48.163Z,18.10
2023-04-23T10:51:09.692Z,18.50
2023-04-23T10:54:19.858Z,19.50
2023-04-23T10:57:21.504Z,18.00
2023-04-23T11:00:23.180Z,17.90
2023-04-23T11:03:32.090Z,18.70
2023-04-23T11:06:48.894Z,17.90
2023-04-23T11:09:52.676Z,17.50
2023-04-23T11:12:56.300Z,17.40
2023-04-23T11:16:16.463Z,17.30
2023-04-23T11:19:20.560Z,16.70
2023-04-23T11:22:24.405Z,16.60
2023-04-23T11:25:27.751Z,16.30
2023-04-23T11:28:32.457Z,15.80
2023-04-23T11:31:34.511Z,15.60
2023-04-23T11:34:37.587Z,15.50
2023-04-23T11:37:43.633Z,14.70
2023-04-23T11:40:48.329Z,15.00
2023-04-23T11:43:49.866Z,15.30
2023-04-23T11:46:51.467Z,15.00
2023-04-23T11:49:53.011Z,15.30
2023-04-23T11:52:54.898Z,15.10
2023-04-23T11:55:56.496Z,15.50
2023-04-23T11:59:03.556Z,15.80
2023-04-23T12:02:05.500Z,17.10
2023-04-23T12:05:09.129Z,16.50
2023-04-23T12:08:14.558Z,19.10
2023-04-23T12:11:16.161Z,17.30
2023-04-23T12:14:20.932Z,17.20
2023-04-23T12:17:22.479Z,17.50
2023-04-23T12:20:24.212Z,17.40
2023-04-23T12:23:27.992Z,17.70
2023-04-23T12:26:29.735Z,18.00
2023-04-23T12:29:31.762Z,19.10
2023-04-23T12:32:34.373Z,19.50
2023-04-23T12:35:39.238Z,17.60
2023-04-23T12:38:42.350Z,17.20
2023-04-23T12:41:43.912Z,17.70
2023-04-23T12:44:45.900Z,18.40
2023-04-23T12:47:47.474Z,17.50
2023-04-23T12:50:49.118Z,16.90
2023-04-23T12:53:51.208Z,18.20
2023-04-23T12:56:53.651Z,18.70
2023-04-23T12:59:55.400Z,20.60
2023-04-23T13:02:57.311Z,18.80
2023-04-23T13:05:58.989Z,19.30
2023-04-23T13:09:03.810Z,19.00
2023-04-23T13:12:05.582Z,19.10
2023-04-23T13:15:09.170Z,18.90
2023-04-23T13:18:10.845Z,19.00
2023-04-23T13:21:12.386Z,19.20
2023-04-23T13:24:14.152Z,19.60
2023-04-23T13:27:15.987Z,19.80
2023-04-23T13:30:17.632Z,19.80
2023-04-23T13:33:21.091Z,18.90
2023-04-23T13:36:22.814Z,21.40
2023-04-23T13:39:24.638Z,20.30
2023-04-23T13:42:26.274Z,22.00
2023-04-23T13:45:27.952Z,19.80
2023-04-23T13:48:31.261Z,19.80
2023-04-23T13:51:35.272Z,19.80
2023-04-23T13:54:37.622Z,20.00
2023-04-23T13:57:39.994Z,20.20
2023-04-23T14:00:43.023Z,20.00
2023-04-23T14:03:44.953Z,19.70
2023-04-23T14:06:46.637Z,19.90
2023-04-23T14:09:52.589Z,20.90
2023-04-23T14:12:55.292Z,19.70
2023-04-23T14:15:56.968Z,19.80
2023-04-23T14:18:58.677Z,19.70
2023-04-23T14:22:00.791Z,19.70
2023-04-23T14:25:04.714Z,20.50
2023-04-23T14:28:28.369Z,19.70
2023-04-23T14:31:30.785Z,20.80
2023-04-23T14:34:35.602Z,19.50
2023-04-23T14:37:37.326Z,19.50
2023-04-23T14:40:38.962Z,21.50
2023-04-23T14:43:40.566Z,19.40
2023-04-23T14:46:42.295Z,19.90
2023-04-23T14:49:45.558Z,18.90
2023-04-23T14:52:48.685Z,21.20
2023-04-23T14:55:50.231Z,19.20
2023-04-23T14:58:51.793Z,18.80
2023-04-23T15:01:53.873Z,18.90
2023-04-23T15:04:56.533Z,18.90
2023-04-23T15:07:58.307Z,18.70
2023-04-23T15:11:00.080Z,18.90
2023-04-23T15:14:18.331Z,18.80
2023-04-23T15:17:19.899Z,18.70
2023-04-23T15:20:21.785Z,18.60
2023-04-23T15:23:24.097Z,18.70
2023-04-23T15:26:26.284Z,18.20
2023-04-23T15:29:28.253Z,18.30
2023-04-23T15:32:29.942Z,17.50
2023-04-23T15:35:31.536Z,18.50
2023-04-23T15:38:33.460Z,17.80
2023-04-23T15:41:39.508Z,17.10
2023-04-23T15:44:42.566Z,17.70
2023-04-23T15:47:44.218Z,17.50
2023-04-23T15:50:45.993Z,17.00
2023-04-23T15:53:47.782Z,17.10
2023-04-23T15:56:49.391Z,19.10
2023-04-23T15:59:51.003Z,17.70
2023-04-23T16:02:53.016Z,16.60
2023-04-23T16:05:54.660Z,17.40
2023-04-23T16:08:57.338Z,16.40
2023-04-23T16:11:59.677Z,16.00
2023-04-23T16:15:01.365Z,15.70
2023-04-23T16:18:03.328Z,15.90
2023-04-23T16:21:06.080Z,15.80
2023-04-23T16:24:07.950Z,15.40
2023-04-23T16:27:10.802Z,14.80
2023-04-23T16:30:12.700Z,14.60
2023-04-23T16:33:14.436Z,14.70
2023-04-23T16:36:16.168Z,14.60
2023-04-23T16:39:17.775Z,14.60
2023-04-23T16:42:19.507Z,14.70
2023-04-23T16:45:23.082Z,14.30
2023-04-23T16:48:24.906Z,14.20
2023-04-23T16:51:26.812Z,14.50
2023-04-23T16:54:28.618Z,14.10
2023-04-23T16:57:30.229Z,15.30
2023-04-23T17:00:32.197Z,13.70
2023-04-23T17:03:34.045Z,16.10
2023-04-23T17:06:35.987Z,14.00
2023-04-23T17:09:37.634Z,13.90
2023-04-23T17:12:39.201Z,13.80
2023-04-23T17:15:41.104Z,13.80
2023-04-23T17:18:42.766Z,13.80
2023-04-23T17:21:44.676Z,14.10
2023-04-23T17:24:46.214Z,13.80
2023-04-23T17:27:47.802Z,13.80
2023-04-23T17:30:53.736Z,13.90
2023-04-23T17:33:56.369Z,13.70
2023-04-23T17:36:57.977Z,13.40
2023-04-23T17:39:59.529Z,13.30
2023-04-23T17:43:01.199Z,13.50
2023-04-23T17:46:03.296Z,13.40
2023-04-23T17:49:05.094Z,13.70
2023-04-23T17:52:07.120Z,15.00
2023-04-23T17:55:08.830Z,14.90
2023-04-23T17:58:10.407Z,13.60
2023-04-23T18:01:12.270Z,13.70
2023-04-23T18:04:16.644Z,13.00
2023-04-23T18:07:19.209Z,13.50
2023-04-23T18:10:21.103Z,13.60
2023-04-23T18:13:22.824Z,13.40
2023-04-23T18:16:24.537Z,13.30
2023-04-23T18:19:26.149Z,15.00
2023-04-23T18:22:27.752Z,13.20
2023-04-23T18:25:30.183Z,12.90
2023-04-23T18:28:34.302Z,14.60
2023-04-23T18:31:37.552Z,13.20
2023-04-23T18:34:40.668Z,13.10
2023-04-23T18:37:48.771Z,13.00
2023-04-23T18:40:50.320Z,12.90
2023-04-23T18:43:51.906Z,13.10
2023-04-23T18:46:53.662Z,13.10
2023-04-23T18:50:02.812Z,13.10
2023-04-23T18:53:05.007Z,13.10
2023-04-23T18:56:06.562Z,13.20
2023-04-23T18:59:08.112Z,13.20
2023-04-23T19:02:11.832Z,13.40
2023-04-23T19:05:16.664Z,13.40
2023-04-23T19:08:18.291Z,13.20
2023-04-23T19:11:19.882Z,13.30
2023-04-23T19:14:21.606Z,13.20
2023-04-23T19:17:23.281Z,13.10
2023-04-23T19:20:24.899Z,13.00
2023-04-23T19:23:26.579Z,13.20
2023-04-23T19:26:28.121Z,13.00
2023-04-23T19:29:29.706Z,12.90
2023-04-23T19:32:35.131Z,13.10
2023-04-23T19:35:39.397Z,13.20
2023-04-23T19:38:42.130Z,13.00
2023-04-23T19:41:44.017Z,13.10
2023-04-23T19:44:47.852Z,12.90
2023-04-23T19:47:49.701Z,12.90
2023-04-23T19:50:51.408Z,13.40
2023-04-23T19:53:53.924Z,12.60
2023-04-23T19:56:55.754Z,14.20
2023-04-23T19:59:57.378Z,12.60
2023-04-23T20:02:59.156Z,12.60
2023-04-23T20:06:01.114Z,13.00
2023-04-23T20:09:20.017Z,12.70
2023-04-23T20:12:21.698Z,12.90
2023-04-23T20:15:25.772Z,12.80
2023-04-23T20:18:29.201Z,13.10
2023-04-23T20:21:31.768Z,13.00
2023-04-23T20:24:33.585Z,12.50
2023-04-23T20:27:35.427Z,12.40
2023-04-23T20:30:37.147Z,13.00
2023-04-23T20:33:39.272Z,14.50
2023-04-23T20:36:40.837Z,12.50
2023-04-23T20:39:43.174Z,14.30
2023-04-23T20:42:46.312Z,13.10
2023-04-23T20:45:47.922Z,12.60
2023-04-23T20:48:54.188Z,12.60
2023-04-23T20:51:56.547Z,12.60
2023-04-23T20:54:58.117Z,12.80
2023-04-23T20:57:59.676Z,12.50
2023-04-23T21:01:01.298Z,12.50
2023-04-23T21:04:03.243Z,12.40
2023-04-23T21:07:04.913Z,12.60
2023-04-23T21:10:07.306Z,12.30
2023-04-23T21:13:12.044Z,12.20
2023-04-23T21:16:14.158Z,12.20
2023-04-23T21:19:15.731Z,12.40
2023-04-23T21:22:17.761Z,12.50
2023-04-23T21:25:19.438Z,12.00
2023-04-23T21:28:21.123Z,12.30
2023-04-23T21:31:39.801Z,12.20
2023-04-23T21:34:41.531Z,13.60
2023-04-23T21:37:43.089Z,12.10
2023-04-23T21:40:44.955Z,11.90
2023-04-23T21:43:46.802Z,11.90
2023-04-23T21:46:49.078Z,11.70
2023-04-23T21:49:51.050Z,12.00
2023-04-23T21:52:53.276Z,12.00
2023-04-23T21:55:54.837Z,11.60
2023-04-23T21:58:56.683Z,11.60
2023-04-23T22:01:58.426Z,11.60
2023-04-23T22:05:00.045Z,11.80
2023-04-23T22:08:01.670Z,13.30
2023-04-23T22:11:04.397Z,11.50
2023-04-23T22:14:06.308Z,12.10
2023-04-23T22:17:10.161Z,11.90
2023-04-23T22:20:13.284Z,13.20
2023-04-23T22:23:18.491Z,11.70
2023-04-23T22:26:21.021Z,11.90
2023-04-23T22:29:22.529Z,11.80
2023-04-23T22:32:24.249Z,11.80
2023-04-23T22:35:28.215Z,11.40
2023-04-23T22:38:29.929Z,11.70
2023-04-23T22:41:33.168Z,11.70
2023-04-23T22:44:35.710Z,11.80
2023-04-23T22:47:37.539Z,11.30
2023-04-23T22:50:40.260Z,11.30
2023-04-23T22:53:41.843Z,11.50
2023-04-23T22:56:43.466Z,11.70
2023-04-23T22:59:45.301Z,11.60
2023-04-23T23:02:47.034Z,11.20
2023-04-23T23:05:48.631Z,10.60
2023-04-23T23:08:50.440Z,11.70
2023-04-23T23:11:52.130Z,11.40
2023-04-23T23:14:53.650Z,11.90
2023-04-23T23:17:55.463Z,11.60
2023-04-23T23:20:57.068Z,12.70
2023-04-23T23:23:58.727Z,11.10
2023-04-23T23:27:01.277Z,11.70
2023-04-23T23:30:06.075Z,11.60
2023-04-23T23:33:07.706Z,11.80
2023-04-23T23:36:09.326Z,11.50
2023-04-23T23:39:11.177Z,11.50
2023-04-23T23:42:12.794Z,11.50
2023-04-23T23:45:14.475Z,11.30
2023-04-23T23:48:16.078Z,11.60
2023-04-23T23:51:18.061Z,11.50
2023-04-23T23:54:19.634Z,11.70
2023-04-23T23:57:21.343Z,11.40
